Time;durP1;ratioP1;P1;durP2;ratioP2;P2;SDS_P1;SDS_P2;PMS_P1;PMS_P2;Temp;Humidity;BMP_temperature;BMP_pressure;BME280_temperature;BME280_humidity;BME280_pressure;Samples;Min_cycle;Max_cycle;Signal;HPM_P1;HPM_P2
2021/08/24 00:00:27;;;;;;;14.02;12.93;;;15.80;84.60;;;;;;4934382;29;20154;-72
2021/08/24 00:03:00;;;;;;;13.90;12.88;;;15.80;84.60;;;;;;4933612;29;20040;-73
2021/08/24 00:05:37;;;;;;;14.40;13.35;;;15.80;84.70;;;;;;4931404;29;20142;-72
2021/08/24 00:08:08;;;;;;;14.23;13.13;;;15.80;85.00;;;;;;4933094;29;20166;-72
2021/08/24 00:10:47;;;;;;;14.65;13.48;;;15.80;84.70;;;;;;4933087;29;20470;-72
2021/08/24 00:13:21;;;;;;;13.57;12.57;;;15.80;84.70;;;;;;4935521;29;20047;-71
2021/08/24 00:15:55;;;;;;;14.18;13.13;;;15.80;84.90;;;;;;4933433;29;20083;-71
2021/08/24 00:18:27;;;;;;;14.50;13.40;;;15.80;84.50;;;;;;4933100;29;20142;-72
2021/08/24 00:21:00;;;;;;;14.93;13.65;;;15.80;84.50;;;;;;4936644;29;20138;-73
2021/08/24 00:23:32;;;;;;;14.63;13.45;;;15.80;85.00;;;;;;4933672;29;20534;-72
2021/08/24 00:26:04;;;;;;;15.13;13.82;;;15.80;84.80;;;;;;4935861;29;20048;-72
2021/08/24 00:28:36;;;;;;;14.43;13.32;;;15.80;84.70;;;;;;4936367;29;20170;-73
2021/08/24 00:31:08;;;;;;;15.02;13.82;;;15.80;85.00;;;;;;4936163;29;20055;-72
2021/08/24 00:33:40;;;;;;;14.45;13.35;;;15.80;84.70;;;;;;4937436;29;20134;-72
2021/08/24 00:36:17;;;;;;;14.55;13.35;;;15.80;84.80;;;;;;4936142;29;20426;-72
2021/08/24 00:38:49;;;;;;;14.70;13.60;;;15.70;85.00;;;;;;4936031;29;20156;-72
2021/08/24 00:41:21;;;;;;;14.68;13.48;;;15.70;85.20;;;;;;4936760;29;20052;-73
2021/08/24 00:43:53;;;;;;;14.20;13.00;;;15.80;85.20;;;;;;4936815;29;20528;-72
2021/08/24 00:46:42;;;;;;;15.05;13.95;;;15.80;85.20;;;;;;4936249;29;20134;-73
2021/08/24 00:49:17;;;;;;;14.23;13.13;;;15.80;85.10;;;;;;4934087;29;20054;-72
2021/08/24 00:52:11;;;;;;;14.77;13.60;;;15.80;84.80;;;;;;4936277;29;20141;-72
2021/08/24 00:54:45;;;;;;;14.95;13.85;;;15.80;84.90;;;;;;4935026;29;20512;-73
2021/08/24 00:57:22;;;;;;;14.90;13.80;;;15.80;85.00;;;;;;4935003;29;20079;-73
2021/08/24 00:59:56;;;;;;;14.98;13.88;;;15.80;84.90;;;;;;4936130;29;20135;-73
2021/08/24 01:02:28;;;;;;;15.52;14.25;;;15.80;85.50;;;;;;4943236;29;20518;-73
2021/08/24 01:05:00;;;;;;;14.95;13.75;;;15.80;85.20;;;;;;4935939;29;20530;-73
2021/08/24 01:07:54;;;;;;;15.10;13.70;;;15.80;84.90;;;;;;4935538;29;20169;-73
2021/08/24 01:10:39;;;;;;;14.57;13.48;;;15.80;84.90;;;;;;4933973;29;20194;-73
2021/08/24 01:13:33;;;;;;;15.65;14.07;;;15.80;84.90;;;;;;4936360;29;20079;-73
2021/08/24 01:16:24;;;;;;;15.15;14.05;;;15.80;84.80;;;;;;4933572;29;20119;-73
2021/08/24 01:19:30;;;;;;;15.60;14.35;;;15.80;85.20;;;;;;4934794;29;20060;-74
2021/08/24 01:22:24;;;;;;;15.38;14.10;;;15.80;84.90;;;;;;4934114;29;20048;-73
2021/08/24 01:25:04;;;;;;;15.07;13.93;;;15.70;85.50;;;;;;4935809;29;20043;-73
2021/08/24 01:27:57;;;;;;;14.55;13.45;;;15.70;85.20;;;;;;4935132;29;20166;-73
2021/08/24 01:31:03;;;;;;;14.55;13.45;;;15.70;85.50;;;;;;4933713;29;20602;-73
2021/08/24 01:33:55;;;;;;;14.95;13.75;;;15.70;85.20;;;;;;4932527;29;20075;-74
2021/08/24 01:36:30;;;;;;;15.52;14.32;;;15.60;85.00;;;;;;4933781;29;20035;-74
2021/08/24 01:39:14;;;;;;;14.48;13.38;;;15.60;85.20;;;;;;4935255;29;20144;-73
2021/08/24 01:42:12;;;;;;;14.55;13.45;;;15.60;85.20;;;;;;4936140;29;20075;-73
2021/08/24 01:44:44;;;;;;;14.52;13.40;;;15.50;85.20;;;;;;4934816;29;20055;-73
2021/08/24 01:47:57;;;;;;;14.93;13.75;;;15.50;85.30;;;;;;4935032;29;20122;-73
2021/08/24 01:50:35;;;;;;;15.15;13.88;;;15.50;85.20;;;;;;4935510;29;20138;-73
2021/08/24 01:53:16;;;;;;;15.25;13.95;;;15.50;85.40;;;;;;4935605;29;20504;-74
2021/08/24 01:55:56;;;;;;;14.88;13.57;;;15.40;85.10;;;;;;4934189;29;20051;-73
2021/08/24 01:58:51;;;;;;;15.15;14.05;;;15.40;85.20;;;;;;4935912;29;20070;-73
2021/08/24 02:01:31;;;;;;;14.75;13.55;;;15.40;85.00;;;;;;4934949;29;20040;-73
2021/08/24 02:04:11;;;;;;;14.95;13.85;;;15.40;85.00;;;;;;4934620;29;20047;-73
2021/08/24 02:06:46;;;;;;;14.60;13.50;;;15.40;85.00;;;;;;4931956;29;20851;-73
2021/08/24 02:09:24;;;;;;;15.60;14.40;;;15.40;85.40;;;;;;4934284;29;20056;-73
2021/08/24 02:11:57;;;;;;;15.05;13.85;;;15.40;85.30;;;;;;4920933;30;20134;-72
2021/08/24 02:14:30;;;;;;;14.90;13.73;;;15.40;85.40;;;;;;4937093;29;20071;-74
2021/08/24 02:17:05;;;;;;;14.40;13.30;;;15.40;85.70;;;;;;4932794;29;20063;-74
2021/08/24 02:19:44;;;;;;;15.57;14.27;;;15.40;85.20;;;;;;4935116;29;20134;-73
2021/08/24 02:22:28;;;;;;;15.38;14.07;;;15.30;85.50;;;;;;4935429;29;20166;-73
2021/08/24 02:25:11;;;;;;;14.55;13.45;;;15.20;85.50;;;;;;4933653;29;20594;-73
2021/08/24 02:27:54;;;;;;;13.85;12.77;;;15.20;85.80;;;;;;4934506;29;20617;-73
2021/08/24 02:30:29;;;;;;;14.60;13.40;;;15.10;86.20;;;;;;4933841;29;20055;-73
2021/08/24 02:33:03;;;;;;;14.70;13.50;;;15.20;86.10;;;;;;4934379;29;20063;-73
2021/08/24 02:35:40;;;;;;;15.20;14.00;;;15.20;85.70;;;;;;4934998;29;20044;-73
2021/08/24 02:38:29;;;;;;;14.63;13.43;;;15.20;86.00;;;;;;4934676;29;20093;-73
2021/08/24 02:41:13;;;;;;;14.88;13.77;;;15.20;85.10;;;;;;4933519;29;20149;-73
2021/08/24 02:44:12;;;;;;;14.77;13.68;;;15.20;85.20;;;;;;4935931;29;20502;-73
2021/08/24 02:46:50;;;;;;;15.52;14.32;;;15.20;85.20;;;;;;4933499;29;20106;-72
2021/08/24 02:49:28;;;;;;;14.57;13.27;;;15.20;85.10;;;;;;4934613;29;20476;-72
2021/08/24 02:52:05;;;;;;;14.85;13.75;;;15.20;85.30;;;;;;4931960;29;20131;-73
2021/08/24 02:54:40;;;;;;;14.43;13.32;;;15.20;85.30;;;;;;4934271;29;20561;-73
2021/08/24 02:57:14;;;;;;;14.43;13.23;;;15.20;85.40;;;;;;4931957;29;20134;-73
2021/08/24 02:59:46;;;;;;;15.10;13.88;;;15.20;85.40;;;;;;4934956;29;20047;-73
2021/08/24 03:02:18;;;;;;;15.05;13.85;;;15.20;85.10;;;;;;4934517;29;20075;-72
2021/08/24 03:04:51;;;;;;;15.48;14.18;;;15.20;85.30;;;;;;4934085;29;20058;-73
2021/08/24 03:07:27;;;;;;;15.15;13.95;;;15.10;85.20;;;;;;4938678;29;20144;-73
2021/08/24 03:10:04;;;;;;;15.07;13.98;;;15.10;85.30;;;;;;4934233;29;20138;-72
2021/08/24 03:12:54;;;;;;;15.63;14.43;;;15.10;85.60;;;;;;4934432;29;20079;-72
2021/08/24 03:16:03;;;;;;;15.18;13.95;;;15.10;85.70;;;;;;4934421;29;20074;-72
2021/08/24 03:18:45;;;;;;;14.33;13.13;;;15.10;85.40;;;;;;4931571;29;20052;-72
2021/08/24 03:21:21;;;;;;;15.05;13.95;;;15.10;85.50;;;;;;4933732;29;20109;-72
2021/08/24 03:23:54;;;;;;;15.07;13.98;;;15.00;85.20;;;;;;4933825;29;20131;-72
2021/08/24 03:26:34;;;;;;;15.10;13.80;;;15.00;85.20;;;;;;4934137;29;20160;-73
2021/08/24 03:29:08;;;;;;;15.10;14.00;;;15.00;85.30;;;;;;4934940;29;20064;-72
2021/08/24 03:31:43;;;;;;;15.32;14.02;;;15.00;85.60;;;;;;4932744;29;20381;-72
2021/08/24 03:34:15;;;;;;;14.90;13.70;;;15.00;85.80;;;;;;4934326;29;20075;-70
2021/08/24 03:36:47;;;;;;;15.05;13.77;;;15.00;85.40;;;;;;4938988;29;20150;-73
2021/08/24 03:39:20;;;;;;;14.75;13.60;;;15.00;86.30;;;;;;4932532;29;20150;-70
2021/08/24 03:41:52;;;;;;;15.43;14.20;;;15.00;85.50;;;;;;4931537;29;20574;-72
2021/08/24 03:44:24;;;;;;;15.27;14.10;;;15.00;85.40;;;;;;4933411;29;20223;-72
2021/08/24 03:46:56;;;;;;;14.55;13.45;;;15.00;85.60;;;;;;4933801;29;20435;-72
2021/08/24 03:49:27;;;;;;;14.05;12.85;;;14.90;85.80;;;;;;4933569;29;20072;-72
2021/08/24 03:51:59;;;;;;;14.73;13.63;;;15.00;85.40;;;;;;4931444;29;20062;-72
2021/08/24 03:54:31;;;;;;;15.13;14.02;;;14.90;86.40;;;;;;4932642;29;20135;-73
2021/08/24 03:57:04;;;;;;;15.98;14.50;;;14.90;86.20;;;;;;4931884;29;20053;-72
2021/08/24 03:59:35;;;;;;;15.75;14.55;;;14.80;87.10;;;;;;4934345;29;20162;-71
2021/08/24 04:02:07;;;;;;;15.25;14.05;;;14.70;87.80;;;;;;4934500;29;20135;-71
2021/08/24 04:04:40;;;;;;;15.00;13.70;;;14.70;86.80;;;;;;4934857;29;20044;-71
2021/08/24 04:07:12;;;;;;;15.32;14.00;;;14.70;86.50;;;;;;4934415;29;20154;-74
2021/08/24 04:09:45;;;;;;;15.45;14.25;;;14.70;86.70;;;;;;4918277;29;20062;-74
2021/08/24 04:12:17;;;;;;;15.70;14.50;;;14.60;87.10;;;;;;4933500;29;20049;-73
2021/08/24 04:14:50;;;;;;;15.80;14.60;;;14.60;87.20;;;;;;4933559;29;20067;-72
2021/08/24 04:17:22;;;;;;;15.43;14.20;;;14.60;87.00;;;;;;4932553;29;20047;-71
2021/08/24 04:19:53;;;;;;;14.75;13.55;;;14.60;86.80;;;;;;4933318;29;20677;-72
2021/08/24 04:22:25;;;;;;;15.20;14.00;;;14.60;86.60;;;;;;4931877;29;20039;-71
2021/08/24 04:24:58;;;;;;;15.63;14.27;;;14.70;86.90;;;;;;4932652;29;20040;-73
2021/08/24 04:27:31;;;;;;;14.80;13.60;;;14.70;86.50;;;;;;4932650;29;20097;-72
2021/08/24 04:30:05;;;;;;;16.00;14.68;;;14.70;86.10;;;;;;4931988;29;20135;-72
2021/08/24 04:32:42;;;;;;;15.38;14.18;;;14.70;86.10;;;;;;4932963;29;20630;-72
2021/08/24 04:35:16;;;;;;;15.65;14.25;;;14.70;86.10;;;;;;4932389;29;20472;-71
2021/08/24 04:37:48;;;;;;;15.75;14.55;;;14.70;86.10;;;;;;4929945;29;20051;-72
2021/08/24 04:40:20;;;;;;;15.13;13.93;;;14.70;85.90;;;;;;4932628;29;20530;-72
2021/08/24 04:42:52;;;;;;;15.88;14.65;;;14.70;85.80;;;;;;4934020;29;20142;-72
2021/08/24 04:45:24;;;;;;;15.50;14.30;;;14.70;86.00;;;;;;4933768;29;20078;-72
2021/08/24 04:47:56;;;;;;;16.10;14.80;;;14.70;85.90;;;;;;4931497;29;20126;-73
2021/08/24 04:50:29;;;;;;;16.25;14.93;;;14.80;85.90;;;;;;4933723;29;20059;-73
2021/08/24 04:53:01;;;;;;;16.20;14.95;;;14.70;86.20;;;;;;4933963;29;20510;-73
2021/08/24 04:55:34;;;;;;;16.45;15.15;;;14.70;86.00;;;;;;4932734;29;20047;-72
2021/08/24 04:58:07;;;;;;;17.48;15.98;;;14.80;86.00;;;;;;4931388;29;20078;-73
2021/08/24 05:00:38;;;;;;;16.90;15.55;;;14.80;86.40;;;;;;4937564;29;20055;-74
2021/08/24 05:03:12;;;;;;;16.08;14.82;;;14.70;86.80;;;;;;4931442;29;20067;-74
2021/08/24 05:05:44;;;;;;;15.70;14.40;;;14.70;87.00;;;;;;4929787;29;20541;-74
2021/08/24 05:08:16;;;;;;;15.82;14.50;;;14.70;86.20;;;;;;4933845;29;20515;-74
2021/08/24 05:10:47;;;;;;;15.35;14.05;;;14.70;85.90;;;;;;4938022;29;20058;-74
2021/08/24 05:13:19;;;;;;;15.40;14.10;;;14.80;85.90;;;;;;4933759;29;20099;-73
2021/08/24 05:15:51;;;;;;;14.93;13.65;;;14.70;85.90;;;;;;4933337;29;20062;-76
2021/08/24 05:18:23;;;;;;;15.10;13.80;;;14.80;85.80;;;;;;4935619;29;20422;-74
2021/08/24 05:21:07;;;;;;;15.93;14.55;;;14.70;85.80;;;;;;4932410;29;20146;-74
2021/08/24 05:23:41;;;;;;;17.25;15.75;;;14.70;85.90;;;;;;4934346;29;20128;-75
2021/08/24 05:26:17;;;;;;;15.60;14.40;;;14.80;85.80;;;;;;4933286;29;20071;-75
2021/08/24 05:28:49;;;;;;;15.05;13.75;;;14.80;85.90;;;;;;4934237;29;20060;-75
2021/08/24 05:31:21;;;;;;;14.45;13.35;;;14.80;85.80;;;;;;4933635;29;20170;-75
2021/08/24 05:33:53;;;;;;;14.98;13.77;;;14.80;85.70;;;;;;4933386;29;20059;-75
2021/08/24 05:36:25;;;;;;;14.63;13.52;;;14.80;85.80;;;;;;4933292;29;20051;-74
2021/08/24 05:38:57;;;;;;;14.60;13.30;;;14.80;85.80;;;;;;4932683;29;20146;-74
2021/08/24 05:41:30;;;;;;;14.68;13.48;;;14.80;85.80;;;;;;4932099;29;20120;-75
2021/08/24 05:44:02;;;;;;;14.70;13.50;;;14.70;85.80;;;;;;4933617;29;20423;-75
2021/08/24 05:46:35;;;;;;;14.07;12.88;;;14.80;86.10;;;;;;4927239;29;20056;-75
2021/08/24 05:49:09;;;;;;;14.25;13.10;;;14.80;85.90;;;;;;4929447;29;20058;-74
2021/08/24 05:51:41;;;;;;;14.65;13.30;;;14.80;86.00;;;;;;4932484;29;20134;-75
2021/08/24 05:54:13;;;;;;;14.27;13.18;;;14.90;86.10;;;;;;4935218;29;20057;-74
2021/08/24 05:56:46;;;;;;;14.50;13.20;;;14.90;86.30;;;;;;4930095;29;20039;-75
2021/08/24 05:59:19;;;;;;;13.90;12.80;;;14.90;85.90;;;;;;4931113;29;20082;-75
2021/08/24 06:01:51;;;;;;;14.43;13.32;;;14.90;85.80;;;;;;4933536;29;20051;-74
2021/08/24 06:04:23;;;;;;;14.07;12.90;;;14.90;85.50;;;;;;4930891;29;20524;-74
2021/08/24 06:06:55;;;;;;;14.10;12.98;;;14.90;85.80;;;;;;4931837;29;20135;-75
2021/08/24 06:09:27;;;;;;;13.65;12.55;;;14.90;85.70;;;;;;4933086;29;20651;-74
2021/08/24 06:12:00;;;;;;;13.68;12.57;;;14.90;85.80;;;;;;4932873;29;20039;-74
2021/08/24 06:14:33;;;;;;;14.88;13.48;;;14.90;85.90;;;;;;4940023;29;20052;-73
2021/08/24 06:17:05;;;;;;;14.30;13.13;;;15.00;86.00;;;;;;4932096;29;20598;-74
2021/08/24 06:19:37;;;;;;;13.77;12.68;;;15.00;85.80;;;;;;4934810;29;20058;-72
2021/08/24 06:22:09;;;;;;;13.90;12.70;;;15.00;85.70;;;;;;4932776;29;20080;-73
2021/08/24 06:24:41;;;;;;;14.93;13.63;;;15.00;85.80;;;;;;4939274;29;20134;-73
2021/08/24 06:27:13;;;;;;;14.05;12.85;;;15.10;86.00;;;;;;4933823;29;20070;-72
2021/08/24 06:29:45;;;;;;;14.18;12.98;;;15.10;85.60;;;;;;4916987;29;20044;-71
2021/08/24 06:32:30;;;;;;;13.93;12.70;;;15.10;85.60;;;;;;4931185;29;20142;-73
2021/08/24 06:35:04;;;;;;;14.15;12.95;;;15.10;85.50;;;;;;4932145;29;20134;-73
2021/08/24 06:37:37;;;;;;;13.73;12.63;;;15.20;85.50;;;;;;4933835;29;20134;-73
2021/08/24 06:40:09;;;;;;;13.88;12.77;;;15.20;85.40;;;;;;4939165;29;20144;-73
2021/08/24 06:42:46;;;;;;;13.90;12.80;;;15.20;85.20;;;;;;4938253;29;20075;-71
2021/08/24 06:45:21;;;;;;;14.40;13.30;;;15.20;85.20;;;;;;4932902;29;20054;-71
2021/08/24 06:47:53;;;;;;;14.23;13.02;;;15.30;84.90;;;;;;4933049;29;20583;-72
2021/08/24 06:50:29;;;;;;;14.07;12.98;;;15.30;85.20;;;;;;4931449;29;20063;-72
2021/08/24 06:53:02;;;;;;;14.30;13.20;;;15.30;85.30;;;;;;4934623;29;20067;-73
2021/08/24 06:55:34;;;;;;;13.68;12.57;;;15.30;85.20;;;;;;4933505;29;20610;-72
2021/08/24 06:58:12;;;;;;;15.48;14.07;;;15.40;85.10;;;;;;4933236;29;20572;-73
2021/08/24 07:00:47;;;;;;;15.15;13.85;;;15.40;85.30;;;;;;4932413;29;20047;-73
2021/08/24 07:03:19;;;;;;;14.60;13.32;;;15.30;85.70;;;;;;4934680;29;20783;-73
2021/08/24 07:05:51;;;;;;;14.57;13.48;;;15.40;85.90;;;;;;4931479;29;20050;-72
2021/08/24 07:08:23;;;;;;;14.23;13.13;;;15.40;85.80;;;;;;4932294;29;20056;-72
2021/08/24 07:10:57;;;;;;;14.10;13.10;;;15.40;85.70;;;;;;4920673;30;20055;-71
2021/08/24 07:13:29;;;;;;;14.45;13.38;;;15.50;85.80;;;;;;4930782;29;20166;-71
2021/08/24 07:16:05;;;;;;;15.45;14.25;;;15.60;85.10;;;;;;4933043;29;20134;-72
2021/08/24 07:18:37;;;;;;;14.30;13.20;;;15.60;84.80;;;;;;4936444;29;20044;-72
2021/08/24 07:21:15;;;;;;;14.63;13.52;;;15.60;85.10;;;;;;4931772;29;20048;-72
2021/08/24 07:23:47;;;;;;;15.15;14.00;;;15.60;85.20;;;;;;4931788;29;20043;-72
2021/08/24 07:26:20;;;;;;;14.80;13.70;;;15.70;85.10;;;;;;4931365;29;20131;-72
2021/08/24 07:28:52;;;;;;;15.30;14.20;;;15.80;84.70;;;;;;4933118;29;20051;-72
2021/08/24 07:31:27;;;;;;;14.60;13.50;;;15.80;84.20;;;;;;4938754;29;20048;-73
2021/08/24 07:33:59;;;;;;;14.18;13.07;;;15.90;84.30;;;;;;4933072;29;20056;-72
2021/08/24 07:36:31;;;;;;;15.23;14.07;;;16.00;84.10;;;;;;4930664;29;20116;-73
2021/08/24 07:39:04;;;;;;;14.40;13.30;;;16.10;82.90;;;;;;4930726;29;20127;-72
2021/08/24 07:41:36;;;;;;;15.00;13.77;;;16.10;83.70;;;;;;4932984;29;20130;-73
2021/08/24 07:44:08;;;;;;;14.52;13.43;;;16.20;83.20;;;;;;4934137;29;20181;-72
2021/08/24 07:46:41;;;;;;;15.07;13.98;;;16.20;83.20;;;;;;4931475;29;20140;-72
2021/08/24 07:49:13;;;;;;;14.80;13.70;;;16.30;83.00;;;;;;4932312;29;20055;-72
2021/08/24 07:51:45;;;;;;;14.60;13.50;;;16.40;83.50;;;;;;4933232;29;20606;-73
2021/08/24 07:54:17;;;;;;;15.85;13.82;;;16.40;82.70;;;;;;4929637;29;20134;-74
2021/08/24 07:56:49;;;;;;;14.50;13.38;;;16.40;82.40;;;;;;4927795;29;20558;-73
2021/08/24 07:59:21;;;;;;;14.25;13.15;;;16.60;82.40;;;;;;4929040;29;20169;-73
2021/08/24 08:01:54;;;;;;;14.57;13.48;;;16.60;82.10;;;;;;4931213;29;20095;-72
2021/08/24 08:04:28;;;;;;;15.32;14.13;;;16.70;82.40;;;;;;4933207;29;20462;-71
2021/08/24 08:07:00;;;;;;;15.88;14.57;;;16.80;82.20;;;;;;4930964;29;20083;-71
2021/08/24 08:09:32;;;;;;;15.20;14.10;;;16.80;81.40;;;;;;4929646;29;20047;-74
2021/08/24 08:12:04;;;;;;;15.45;14.25;;;16.90;81.60;;;;;;4929212;29;20145;-73
2021/08/24 08:14:38;;;;;;;15.30;14.10;;;16.90;82.30;;;;;;4932071;29;20379;-73
2021/08/24 08:17:11;;;;;;;14.80;13.70;;;16.90;81.20;;;;;;4930394;29;20137;-74
2021/08/24 08:19:43;;;;;;;15.63;14.32;;;16.80;80.90;;;;;;4933508;29;20047;-73
2021/08/24 08:22:15;;;;;;;15.30;14.10;;;16.70;80.50;;;;;;4931816;29;20140;-73
2021/08/24 08:24:47;;;;;;;15.90;14.70;;;16.70;81.00;;;;;;4933706;29;20044;-74
2021/08/24 08:27:19;;;;;;;15.93;14.63;;;16.70;81.50;;;;;;4932090;29;20893;-73
2021/08/24 08:29:51;;;;;;;15.45;14.25;;;16.70;81.60;;;;;;4933674;29;20139;-74
2021/08/24 08:32:28;;;;;;;15.75;14.55;;;16.70;81.80;;;;;;4933616;29;20336;-74
2021/08/24 08:35:01;;;;;;;15.50;14.30;;;16.90;81.70;;;;;;4934275;29;20075;-74
2021/08/24 08:37:33;;;;;;;15.00;13.90;;;17.00;81.10;;;;;;4931173;29;20062;-74
2021/08/24 08:40:07;;;;;;;15.65;14.45;;;17.10;81.60;;;;;;4935887;29;20058;-75
2021/08/24 08:42:55;;;;;;;15.90;14.60;;;17.20;80.70;;;;;;4934505;29;20105;-75
2021/08/24 08:45:46;;;;;;;16.55;15.25;;;17.30;80.10;;;;;;4936347;29;20055;-75
2021/08/24 08:48:51;;;;;;;15.68;14.48;;;17.50;80.90;;;;;;4941346;29;20051;-75
2021/08/24 08:51:44;;;;;;;15.30;14.00;;;17.50;79.10;;;;;;4936930;29;20054;-76
2021/08/24 08:54:39;;;;;;;15.27;14.02;;;17.50;79.50;;;;;;4938648;29;20437;-74
2021/08/24 08:57:17;;;;;;;16.85;15.55;;;17.80;80.00;;;;;;4931717;29;20048;-75
2021/08/24 09:00:11;;;;;;;16.48;15.18;;;18.00;77.10;;;;;;4937091;29;20047;-76
2021/08/24 09:02:44;;;;;;;16.23;15.02;;;18.10;79.00;;;;;;4934954;29;20090;-75
2021/08/24 09:05:24;;;;;;;17.38;15.85;;;18.40;78.20;;;;;;4936462;29;20786;-74
2021/08/24 09:07:58;;;;;;;16.17;14.97;;;18.70;78.40;;;;;;4936972;29;20048;-75
2021/08/24 09:10:43;;;;;;;15.65;14.55;;;19.00;77.80;;;;;;4934859;29;20491;-75
2021/08/24 09:13:24;;;;;;;15.52;14.43;;;19.30;76.30;;;;;;4937163;29;20518;-76
2021/08/24 09:16:45;;;;;;;16.13;14.90;;;19.40;75.30;;;;;;4933430;29;20055;-75
2021/08/24 09:19:24;;;;;;;15.40;14.30;;;19.40;75.30;;;;;;4932310;29;20125;-76
2021/08/24 09:21:57;;;;;;;15.60;14.40;;;19.40;74.60;;;;;;4935120;29;20146;-74
2021/08/24 09:24:30;;;;;;;15.68;14.43;;;19.40;74.10;;;;;;4933995;29;20052;-75
2021/08/24 09:27:11;;;;;;;15.90;14.70;;;19.40;73.70;;;;;;4933249;29;20130;-75
2021/08/24 09:29:45;;;;;;;16.17;14.82;;;19.40;74.60;;;;;;4934926;29;20138;-75
2021/08/24 09:32:25;;;;;;;15.25;14.05;;;19.50;73.60;;;;;;4934668;29;20136;-75
2021/08/24 09:35:27;;;;;;;16.60;15.30;;;19.40;74.50;;;;;;4932711;29;20534;-75
2021/08/24 09:38:01;;;;;;;16.20;14.90;;;19.40;73.60;;;;;;4933981;29;20162;-73
2021/08/24 09:40:43;;;;;;;16.15;14.82;;;19.60;74.20;;;;;;4934959;29;20530;-75
2021/08/24 09:43:32;;;;;;;16.42;15.23;;;19.80;73.30;;;;;;4935704;29;20130;-74
2021/08/24 09:46:21;;;;;;;16.52;15.23;;;20.10;72.60;;;;;;4934420;29;20189;-74
2021/08/24 09:48:56;;;;;;;16.05;14.85;;;20.10;71.10;;;;;;4934629;29;20066;-75
2021/08/24 09:51:31;;;;;;;16.42;15.13;;;20.20;71.80;;;;;;4934817;29;20047;-74
2021/08/24 09:54:07;;;;;;;16.17;14.98;;;20.20;69.50;;;;;;4933717;29;20135;-75
2021/08/24 09:56:49;;;;;;;16.85;15.45;;;20.30;70.70;;;;;;4933161;29;20169;-75
2021/08/24 09:59:31;;;;;;;15.98;14.77;;;20.30;69.60;;;;;;4934831;29;20154;-74
2021/08/24 10:02:05;;;;;;;15.95;14.75;;;20.50;70.30;;;;;;4936044;29;20059;-75
2021/08/24 10:04:50;;;;;;;17.08;15.77;;;20.60;70.90;;;;;;4934815;29;20052;-73
2021/08/24 10:07:43;;;;;;;16.60;15.30;;;20.60;70.40;;;;;;4934414;29;20599;-75
2021/08/24 10:10:36;;;;;;;16.90;15.60;;;20.70;70.00;;;;;;4935611;29;20054;-73
2021/08/24 10:13:47;;;;;;;16.48;15.27;;;20.80;67.60;;;;;;4935487;29;20129;-74
2021/08/24 10:16:23;;;;;;;16.05;14.88;;;20.90;66.80;;;;;;4900717;30;20047;-74
2021/08/24 10:19:19;;;;;;;16.98;15.68;;;21.10;67.60;;;;;;4915412;30;20079;-74
2021/08/24 10:21:51;;;;;;;16.50;15.20;;;21.20;69.10;;;;;;4930676;29;20091;-75
2021/08/24 10:24:27;;;;;;;16.23;15.02;;;21.30;68.60;;;;;;4933305;29;20155;-75
2021/08/24 10:27:06;;;;;;;16.25;14.95;;;21.30;66.70;;;;;;4931600;29;20519;-73
2021/08/24 10:29:39;;;;;;;16.55;15.35;;;21.20;65.40;;;;;;4933378;29;20414;-73
2021/08/24 10:32:27;;;;;;;16.17;14.98;;;21.20;66.20;;;;;;4935153;29;20352;-74
2021/08/24 10:35:08;;;;;;;16.60;15.40;;;21.10;66.40;;;;;;4935229;29;20048;-74
2021/08/24 10:37:46;;;;;;;15.98;14.77;;;21.00;65.90;;;;;;4935072;29;20643;-74
2021/08/24 10:40:43;;;;;;;15.80;14.63;;;20.70;67.00;;;;;;4932843;29;20481;-73
2021/08/24 10:43:22;;;;;;;16.20;15.00;;;20.60;67.50;;;;;;4935432;29;20142;-74
2021/08/24 10:46:00;;;;;;;15.55;14.35;;;20.40;67.00;;;;;;4930694;29;20151;-73
2021/08/24 10:48:35;;;;;;;15.63;14.43;;;20.20;67.10;;;;;;4932490;29;20501;-73
2021/08/24 10:51:09;;;;;;;16.05;14.90;;;20.10;67.90;;;;;;4933855;29;20066;-74
2021/08/24 10:54:19;;;;;;;15.98;14.77;;;20.00;68.30;;;;;;4934581;29;20151;-74
2021/08/24 10:57:21;;;;;;;15.98;14.77;;;20.00;68.80;;;;;;4933038;29;20530;-73
2021/08/24 11:00:31;;;;;;;15.73;14.52;;;20.00;67.90;;;;;;4935003;29;20051;-72
2021/08/24 11:03:31;;;;;;;15.27;14.00;;;19.90;68.70;;;;;;4929568;29;20248;-73
2021/08/24 11:06:18;;;;;;;16.05;14.70;;;19.80;68.20;;;;;;4929191;29;20046;-73
2021/08/24 11:09:18;;;;;;;15.50;14.30;;;19.80;68.10;;;;;;4933108;29;20124;-74
2021/08/24 11:12:12;;;;;;;16.88;15.57;;;19.80;68.90;;;;;;4932466;29;20102;-73
2021/08/24 11:15:03;;;;;;;17.83;16.42;;;20.00;68.40;;;;;;4931672;29;20129;-74
2021/08/24 11:17:58;;;;;;;20.95;19.00;;;20.20;66.80;;;;;;4934841;29;20068;-74
2021/08/24 11:20:40;;;;;;;18.25;16.73;;;20.20;67.80;;;;;;4933943;29;20142;-74
2021/08/24 11:23:12;;;;;;;19.58;17.75;;;20.00;68.10;;;;;;4934885;29;20082;-74
2021/08/24 11:26:04;;;;;;;16.02;14.73;;;20.10;68.20;;;;;;4933107;29;20054;-74
2021/08/24 11:29:00;;;;;;;17.83;16.33;;;20.20;67.50;;;;;;4935201;29;20142;-75
2021/08/24 11:31:49;;;;;;;19.73;17.98;;;20.30;67.30;;;;;;4932699;29;20197;-76
2021/08/24 11:34:37;;;;;;;18.83;17.23;;;20.40;67.20;;;;;;4933111;29;20110;-76
2021/08/24 11:37:18;;;;;;;18.35;16.75;;;20.70;67.30;;;;;;4936368;29;20055;-74
2021/08/24 11:40:06;;;;;;;17.23;15.73;;;20.70;66.40;;;;;;4932915;29;20134;-74
2021/08/24 11:42:45;;;;;;;15.27;14.07;;;20.80;67.10;;;;;;4929388;29;20070;-74
2021/08/24 11:45:37;;;;;;;20.47;18.67;;;20.70;65.70;;;;;;4932227;29;20059;-74
2021/08/24 11:48:27;;;;;;;18.30;16.60;;;20.90;67.20;;;;;;4934214;29;20051;-73
2021/08/24 11:51:24;;;;;;;17.15;15.75;;;21.10;65.40;;;;;;4933138;29;20048;-73
2021/08/24 11:54:22;;;;;;;18.38;16.77;;;21.30;65.50;;;;;;4931422;29;20984;-72
2021/08/24 11:57:18;;;;;;;19.15;17.55;;;21.30;66.20;;;;;;4933066;29;20155;-72
2021/08/24 11:59:52;;;;;;;16.58;15.27;;;21.70;64.60;;;;;;4933339;29;20073;-74
2021/08/24 12:02:34;;;;;;;17.90;16.48;;;21.60;65.20;;;;;;4931103;29;20493;-74
2021/08/24 12:05:17;;;;;;;20.77;18.88;;;21.70;64.50;;;;;;4932023;29;20043;-74
2021/08/24 12:08:03;;;;;;;15.93;14.73;;;21.90;64.30;;;;;;4932413;29;20066;-73
2021/08/24 12:11:13;;;;;;;15.50;14.40;;;21.90;63.20;;;;;;4932746;29;20047;-72
2021/08/24 12:13:48;;;;;;;16.35;15.15;;;22.00;61.90;;;;;;4932471;29;20125;-72
2021/08/24 12:16:23;;;;;;;16.25;15.05;;;22.00;62.40;;;;;;4931824;29;20043;-72
2021/08/24 12:19:22;;;;;;;15.63;14.43;;;22.10;59.60;;;;;;4936347;29;20051;-73
2021/08/24 12:21:57;;;;;;;16.02;14.82;;;21.90;61.00;;;;;;4936079;29;20054;-73
2021/08/24 12:24:30;;;;;;;16.05;14.85;;;21.80;61.60;;;;;;4936230;29;20130;-72
2021/08/24 12:27:02;;;;;;;15.80;14.70;;;21.70;61.90;;;;;;4935573;29;20133;-72
2021/08/24 12:29:34;;;;;;;15.98;14.77;;;21.70;63.00;;;;;;4935660;29;20075;-72
2021/08/24 12:32:24;;;;;;;15.50;14.40;;;21.70;61.60;;;;;;4935847;29;20393;-72
2021/08/24 12:35:02;;;;;;;;;;;21.70;61.70;;;;;;4943849;29;20154;-73
2021/08/24 12:37:40;;;;;;;15.95;14.75;;;21.80;61.90;;;;;;4938185;29;19937;-71
2021/08/24 12:40:12;;;;;;;15.43;14.10;;;21.80;62.20;;;;;;4937223;29;20143;-72
2021/08/24 12:43:13;;;;;;;14.82;13.73;;;21.70;62.40;;;;;;4937528;29;20051;-72
2021/08/24 12:45:46;;;;;;;15.05;13.95;;;21.80;60.60;;;;;;4929927;29;20494;-72
2021/08/24 12:48:20;;;;;;;14.48;13.38;;;21.70;61.00;;;;;;4935441;29;20127;-72
2021/08/24 12:50:55;;;;;;;14.88;13.77;;;21.70;61.60;;;;;;4937263;29;20140;-72
2021/08/24 12:53:30;;;;;;;14.18;13.18;;;21.80;60.20;;;;;;4935226;29;20162;-72
2021/08/24 12:56:03;;;;;;;13.88;12.88;;;21.90;61.00;;;;;;4934996;29;20081;-73
2021/08/24 12:58:48;;;;;;;13.82;12.90;;;22.00;59.20;;;;;;4949337;29;20060;-71
2021/08/24 13:01:26;;;;;;;14.40;13.40;;;22.20;60.00;;;;;;4935981;29;20127;-72
2021/08/24 13:04:07;;;;;;;13.80;12.80;;;22.30;59.60;;;;;;4940614;29;20104;-72
2021/08/24 13:06:45;;;;;;;14.13;13.13;;;22.20;60.60;;;;;;4935854;29;20482;-71
2021/08/24 13:09:35;;;;;;;14.10;13.10;;;22.00;61.00;;;;;;4935840;29;20040;-72
2021/08/24 13:12:13;;;;;;;14.85;13.75;;;21.70;61.10;;;;;;4935755;29;20122;-73
2021/08/24 13:14:55;;;;;;;14.35;13.32;;;21.70;61.90;;;;;;4934765;29;20804;-72
2021/08/24 13:18:14;;;;;;;14.68;13.48;;;21.90;62.10;;;;;;4933621;29;20047;-72
2021/08/24 13:20:48;;;;;;;14.23;13.23;;;21.80;60.70;;;;;;4932204;29;20590;-72
2021/08/24 13:23:25;;;;;;;14.52;13.52;;;21.60;60.90;;;;;;4935240;29;20055;-72
2021/08/24 13:26:04;;;;;;;14.68;13.57;;;21.40;61.50;;;;;;4935568;29;20189;-73